Time;durP1;ratioP1;P1;durP2;ratioP2;P2;SDS_P1;SDS_P2;PMS_P1;PMS_P2;Temp;Humidity;BMP_temperature;BMP_pressure;BME280_temperature;BME280_humidity;BME280_pressure;Samples;Min_cycle;Max_cycle;Signal;HPM_P1;HPM_P2
2021/05/24 00:02:23;;;;;;;3.17;1.35;;;;;;;-145.50;100.00;65435.88;4976969;28;20145;-75
2021/05/24 00:04:49;;;;;;;4.15;1.33;;;;;;;-145.50;100.00;65435.88;4967205;28;20473;-75
2021/05/24 00:07:16;;;;;;;3.42;1.40;;;;;;;-145.50;100.00;65435.88;4976547;28;20094;-74
2021/05/24 00:09:42;;;;;;;4.75;1.60;;;;;;;-145.50;100.00;65435.88;4952219;28;20073;-74
2021/05/24 00:12:09;;;;;;;5.00;1.27;;;;;;;-145.50;100.00;65435.88;4970614;28;20164;-75
2021/05/24 00:14:38;;;;;;;7.70;1.40;;;;;;;-145.50;100.00;65435.88;4971071;28;20162;-75
2021/05/24 00:17:05;;;;;;;3.55;1.30;;;;;;;-145.50;100.00;65435.88;4972224;28;20482;-75
2021/05/24 00:19:32;;;;;;;2.75;1.17;;;;;;;-145.50;100.00;65435.88;4975544;28;20137;-75
2021/05/24 00:21:59;;;;;;;4.35;1.23;;;;;;;-145.50;100.00;65435.88;4950617;28;20133;-74
2021/05/24 00:24:25;;;;;;;5.97;1.30;;;;;;;-145.50;100.00;65435.88;4955361;28;20249;-75
2021/05/24 00:26:52;;;;;;;2.45;1.15;;;;;;;-145.50;100.00;65435.88;4969290;28;20520;-75
2021/05/24 00:29:21;;;;;;;5.90;1.48;;;;;;;-145.50;100.00;65435.88;4955419;28;20082;-75
2021/05/24 00:31:48;;;;;;;4.32;1.42;;;;;;;-145.50;100.00;65435.88;4978271;28;20054;-75
2021/05/24 00:34:14;;;;;;;1.63;1.10;;;;;;;-145.50;100.00;65435.88;4967555;28;20137;-74
2021/05/24 00:36:41;;;;;;;2.90;1.10;;;;;;;-145.50;100.00;65435.88;4978676;28;20638;-73
2021/05/24 00:39:08;;;;;;;4.43;1.20;;;;;;;-145.50;100.00;65435.88;4949475;28;20081;-74
2021/05/24 00:41:37;;;;;;;2.83;1.17;;;;;;;-145.50;100.00;65435.88;4969806;28;20061;-73
2021/05/24 00:44:04;;;;;;;4.88;1.30;;;;;;;-145.50;100.00;65435.88;4979259;28;20058;-72
2021/05/24 00:46:32;;;;;;;5.23;1.20;;;;;;;-145.50;100.00;65435.88;4949128;28;20058;-73
2021/05/24 00:48:59;;;;;;;1.92;1.00;;;;;;;-145.50;100.00;65435.88;4980464;28;20558;-73
2021/05/24 00:51:26;;;;;;;3.63;1.08;;;;;;;-145.50;100.00;65435.88;4971573;28;20069;-73
2021/05/24 00:53:52;;;;;;;2.50;0.95;;;;;;;-145.50;100.00;65435.88;4979473;28;20096;-73
2021/05/24 00:56:21;;;;;;;3.58;1.20;;;;;;;-145.50;100.00;65435.88;4973960;28;20867;-73
2021/05/24 00:58:48;;;;;;;4.97;2.20;;;;;;;-145.50;100.00;65435.88;4980411;28;20548;-73
2021/05/24 01:01:16;;;;;;;3.55;1.00;;;;;;;-145.50;100.00;65435.88;4964210;28;20058;-73
2021/05/24 01:03:42;;;;;;;2.22;1.00;;;;;;;-145.50;100.00;65435.88;4970095;28;20054;-74
2021/05/24 01:06:09;;;;;;;4.43;0.95;;;;;;;-145.50;100.00;65435.88;4982537;28;20082;-74
2021/05/24 01:08:35;;;;;;;5.05;1.23;;;;;;;-145.50;100.00;65435.88;4953106;28;20149;-73
2021/05/24 01:11:02;;;;;;;3.42;1.08;;;;;;;-145.50;100.00;65435.88;4982851;28;20793;-73
2021/05/24 01:13:29;;;;;;;3.55;1.20;;;;;;;-145.50;100.00;65435.88;4971508;28;20472;-74
2021/05/24 01:15:56;;;;;;;4.85;1.10;;;;;;;-145.50;100.00;65435.88;4983549;28;20062;-73
2021/05/24 01:18:22;;;;;;;2.85;1.15;;;;;;;-145.50;100.00;65435.88;4976589;28;20153;-73
2021/05/24 01:20:49;;;;;;;3.75;1.00;;;;;;;-145.50;100.00;65435.88;4970480;28;20927;-73
2021/05/24 01:23:18;;;;;;;4.78;1.10;;;;;;;-145.50;100.00;65435.88;4979140;28;20139;-74
2021/05/24 01:25:48;;;;;;;6.05;1.25;;;;;;;-145.50;100.00;65435.88;4957218;28;20238;-74
2021/05/24 01:28:17;;;;;;;1.55;1.00;;;;;;;-145.50;100.00;65435.88;4979792;28;20113;-74
2021/05/24 01:30:44;;;;;;;;;;;;;;;-145.50;100.00;65435.88;4975517;28;20085;-74
2021/05/24 01:33:11;;;;;;;2.97;1.00;;;;;;;-145.50;100.00;65435.88;4973123;28;19992;-74
2021/05/24 01:35:39;;;;;;;5.68;1.30;;;;;;;-145.50;100.00;65435.88;4957671;28;20082;-74
2021/05/24 01:38:09;;;;;;;3.60;1.00;;;;;;;-145.50;100.00;65435.88;4956261;28;20611;-74
2021/05/24 01:40:36;;;;;;;2.35;1.00;;;;;;;-145.50;100.00;65435.88;4979700;28;20098;-74
2021/05/24 01:43:04;;;;;;;3.05;1.00;;;;;;;-145.50;100.00;65435.88;4974613;28;20417;-74
2021/05/24 01:45:32;;;;;;;3.38;1.10;;;;;;;-145.50;100.00;65435.88;4976773;28;20082;-74
2021/05/24 01:47:58;;;;;;;4.13;1.10;;;;;;;-145.50;100.00;65435.88;4968273;28;20318;-74
2021/05/24 01:50:25;;;;;;;3.33;1.20;;;;;;;-145.50;100.00;65435.88;4979354;28;20569;-73
2021/05/24 01:52:52;;;;;;;5.50;1.05;;;;;;;-145.50;100.00;65435.88;4980303;28;20490;-74
2021/05/24 01:55:19;;;;;;;4.43;0.85;;;;;;;-145.50;100.00;65435.88;4959685;28;20074;-74
2021/05/24 01:57:46;;;;;;;4.03;1.15;;;;;;;-145.50;100.00;65435.88;4966008;28;20100;-74
2021/05/24 02:00:19;;;;;;;4.82;1.17;;;;;;;-145.50;100.00;65435.88;4968729;28;20657;-74
2021/05/24 02:02:46;;;;;;;3.13;1.30;;;;;;;-145.50;100.00;65435.88;4975271;28;20456;-74
2021/05/24 02:05:14;;;;;;;2.58;1.00;;;;;;;-145.50;100.00;65435.88;4952424;28;20042;-74
2021/05/24 02:07:41;;;;;;;4.53;1.08;;;;;;;-145.50;100.00;65435.88;4981603;28;20120;-74
2021/05/24 02:10:10;;;;;;;3.37;1.10;;;;;;;-145.50;100.00;65435.88;4977740;28;20092;-74
2021/05/24 02:12:37;;;;;;;;;;;;;;;-145.50;100.00;65435.88;4973831;28;20540;-73
2021/05/24 02:15:06;;;;;;;3.10;1.00;;;;;;;-145.50;100.00;65435.88;4974267;28;20024;-73
2021/05/24 02:17:32;;;;;;;2.65;1.05;;;;;;;-145.50;100.00;65435.88;4952222;28;20550;-73
2021/05/24 02:19:59;;;;;;;2.00;0.82;;;;;;;-145.50;100.00;65435.88;4959192;28;20566;-73
2021/05/24 02:22:26;;;;;;;3.10;1.00;;;;;;;-145.50;100.00;65435.88;4980526;28;20446;-73
2021/05/24 02:24:52;;;;;;;6.75;1.25;;;;;;;-145.50;100.00;65435.88;4956217;28;20152;-73
2021/05/24 02:27:19;;;;;;;3.33;0.95;;;;;;;-145.50;100.00;65435.88;4971872;28;20104;-73
2021/05/24 02:29:45;;;;;;;4.25;1.20;;;;;;;-145.50;100.00;65435.88;4966424;28;20145;-73
2021/05/24 02:32:12;;;;;;;5.30;1.10;;;;;;;-145.50;100.00;65435.88;4974086;28;20058;-74
2021/05/24 02:34:38;;;;;;;3.03;1.17;;;;;;;-145.50;100.00;65435.88;4957882;28;20104;-73
2021/05/24 02:37:05;;;;;;;2.67;0.90;;;;;;;-145.50;100.00;65435.88;4982765;28;20140;-73
2021/05/24 02:39:32;;;;;;;2.85;1.08;;;;;;;-145.50;100.00;65435.88;4981628;28;20049;-73
2021/05/24 02:41:58;;;;;;;3.97;1.30;;;;;;;-145.50;100.00;65435.88;4968187;28;20085;-73
2021/05/24 02:44:25;;;;;;;5.47;1.30;;;;;;;-145.50;100.00;65435.88;4974485;28;20117;-74
2021/05/24 02:46:51;;;;;;;2.28;1.10;;;;;;;-145.50;100.00;65435.88;4954468;28;20137;-74
2021/05/24 02:49:18;;;;;;;5.30;1.23;;;;;;;-145.50;100.00;65435.88;4980599;28;20656;-73
2021/05/24 02:51:44;;;;;;;3.45;1.13;;;;;;;-145.50;100.00;65435.88;4971060;28;20061;-73
2021/05/24 02:54:11;;;;;;;7.50;1.10;;;;;;;-145.50;100.00;65435.88;4973768;28;20388;-74
2021/05/24 02:56:37;;;;;;;3.50;1.05;;;;;;;-145.50;100.00;65435.88;4975536;28;20574;-74
2021/05/24 02:59:04;;;;;;;3.00;1.00;;;;;;;-145.50;100.00;65435.88;4970140;28;20130;-74
2021/05/24 03:01:32;;;;;;;3.42;1.10;;;;;;;-145.50;100.00;65435.88;4977189;28;20688;-74
2021/05/24 03:04:00;;;;;;;4.50;1.15;;;;;;;-145.50;100.00;65435.88;4971033;28;20133;-73
2021/05/24 03:06:27;;;;;;;4.05;1.10;;;;;;;-145.50;100.00;65435.88;4964697;28;20141;-73
2021/05/24 03:08:54;;;;;;;5.38;1.02;;;;;;;-145.50;100.00;65435.88;4970190;28;20130;-73
2021/05/24 03:11:22;;;;;;;4.07;1.08;;;;;;;-145.50;100.00;65435.88;4979550;28;20112;-73
2021/05/24 03:13:50;;;;;;;2.85;1.20;;;;;;;-145.50;100.00;65435.88;4980813;28;20085;-73
2021/05/24 03:16:18;;;;;;;4.63;1.92;;;;;;;-145.50;100.00;65435.88;4957401;28;20054;-73
2021/05/24 03:18:44;;;;;;;3.63;1.20;;;;;;;-145.50;100.00;65435.88;4982393;28;20102;-74
2021/05/24 03:21:11;;;;;;;2.40;1.00;;;;;;;-145.50;100.00;65435.88;4953933;28;20115;-74
2021/05/24 03:23:37;;;;;;;2.63;0.90;;;;;;;-145.50;100.00;65435.88;4974081;28;20508;-73
2021/05/24 03:26:04;;;;;;;2.67;0.93;;;;;;;-145.50;100.00;65435.88;4970467;28;20496;-74
2021/05/24 03:28:30;;;;;;;3.80;1.10;;;;;;;-145.50;100.00;65435.88;4976373;28;20049;-74
2021/05/24 03:30:57;;;;;;;3.10;1.02;;;;;;;-145.50;100.00;65435.88;4962029;28;20058;-73
2021/05/24 03:33:23;;;;;;;4.85;1.30;;;;;;;-145.50;100.00;65435.88;4969127;28;20097;-73
2021/05/24 03:35:50;;;;;;;1.98;0.80;;;;;;;-145.50;100.00;65435.88;4971502;28;20050;-73
2021/05/24 03:38:17;;;;;;;1.90;0.90;;;;;;;-145.50;100.00;65435.88;4965186;28;20086;-73
2021/05/24 03:40:43;;;;;;;2.60;0.85;;;;;;;-145.50;100.00;65435.88;4972666;28;21261;-73
2021/05/24 03:43:10;;;;;;;3.65;0.90;;;;;;;-145.50;100.00;65435.88;4976274;28;20140;-73
2021/05/24 03:45:39;;;;;;;3.88;0.95;;;;;;;-145.50;100.00;65435.88;4969147;28;20054;-73
2021/05/24 03:48:06;;;;;;;3.20;0.80;;;;;;;-145.50;100.00;65435.88;4975958;28;20050;-72
2021/05/24 03:50:33;;;;;;;2.10;0.80;;;;;;;-145.50;100.00;65435.88;4965783;28;20054;-73
2021/05/24 03:53:00;;;;;;;3.67;1.00;;;;;;;-145.50;100.00;65435.88;4975693;28;20474;-73
2021/05/24 03:55:26;;;;;;;3.28;1.40;;;;;;;-145.50;100.00;65435.88;4969351;28;20050;-73
2021/05/24 03:57:54;;;;;;;2.40;1.10;;;;;;;-145.50;100.00;65435.88;4980198;28;20245;-73
2021/05/24 04:00:22;;;;;;;4.05;1.10;;;;;;;-145.50;100.00;65435.88;4980175;28;20689;-73
2021/05/24 04:02:49;;;;;;;3.72;1.10;;;;;;;-145.50;100.00;65435.88;4949176;28;20086;-73
2021/05/24 04:05:20;;;;;;;2.47;1.00;;;;;;;-145.50;100.00;65435.88;4975390;28;20127;-73
2021/05/24 04:07:53;;;;;;;1.75;1.15;;;;;;;-145.50;100.00;65435.88;4968703;28;20116;-73
2021/05/24 04:10:24;;;;;;;2.60;0.90;;;;;;;-145.50;100.00;65435.88;4977472;28;20521;-73
2021/05/24 04:12:51;;;;;;;2.47;0.82;;;;;;;-145.50;100.00;65435.88;4970393;28;20054;-73
2021/05/24 04:15:17;;;;;;;2.30;1.10;;;;;;;-145.50;100.00;65435.88;4975518;28;20055;-73
2021/05/24 04:17:46;;;;;;;2.33;0.95;;;;;;;-145.50;100.00;65435.88;4972526;28;20089;-73
2021/05/24 04:20:14;;;;;;;5.03;1.00;;;;;;;-145.50;100.00;65435.88;4947347;28;20064;-73
2021/05/24 04:22:41;;;;;;;5.07;0.93;;;;;;;-145.50;100.00;65435.88;4960196;28;20670;-73
2021/05/24 04:25:09;;;;;;;2.20;0.98;;;;;;;-145.50;100.00;65435.88;4968556;28;20485;-73
2021/05/24 04:27:35;;;;;;;2.60;1.10;;;;;;;-145.50;100.00;65435.88;4960400;28;20148;-73
2021/05/24 04:30:04;;;;;;;4.72;1.33;;;;;;;-145.50;100.00;65435.88;4963989;28;20292;-73
2021/05/24 04:32:30;;;;;;;;;;;;;;;-145.50;100.00;65435.88;4970134;28;20133;-73
2021/05/24 04:34:57;;;;;;;4.00;1.10;;;;;;;-145.50;100.00;65435.88;4975616;28;20472;-73
2021/05/24 04:37:23;;;;;;;2.17;0.88;;;;;;;-145.50;100.00;65435.88;4970329;28;20155;-72
2021/05/24 04:39:50;;;;;;;2.53;1.00;;;;;;;-145.50;100.00;65435.88;4957280;28;20078;-72
2021/05/24 04:42:19;;;;;;;2.97;0.85;;;;;;;-145.50;100.00;65435.88;4970600;28;20179;-73
2021/05/24 04:44:46;;;;;;;6.57;1.10;;;;;;;-145.50;100.00;65435.88;4970763;28;20082;-72
2021/05/24 04:47:12;;;;;;;2.55;1.10;;;;;;;-145.50;100.00;65435.88;4968498;28;20557;-72
2021/05/24 04:49:39;;;;;;;3.03;0.90;;;;;;;-145.50;100.00;65435.88;4977324;28;20453;-73
2021/05/24 04:52:05;;;;;;;3.35;1.00;;;;;;;-145.50;100.00;65435.88;4962415;28;20062;-73
2021/05/24 04:54:31;;;;;;;2.28;0.95;;;;;;;-145.50;100.00;65435.88;4971420;28;20113;-73
2021/05/24 04:56:59;;;;;;;3.08;1.02;;;;;;;-145.50;100.00;65435.88;4979759;28;20058;-73
2021/05/24 04:59:25;;;;;;;4.25;1.00;;;;;;;-145.50;100.00;65435.88;4963667;28;20074;-73
2021/05/24 05:01:52;;;;;;;2.03;1.40;;;;;;;-145.50;100.00;65435.88;4966430;28;20134;-73
2021/05/24 05:04:18;;;;;;;2.75;1.08;;;;;;;-145.50;100.00;65435.88;4951147;28;20148;-73
2021/05/24 05:06:44;;;;;;;2.22;0.98;;;;;;;-145.50;100.00;65435.88;4966790;28;20578;-73
2021/05/24 05:09:11;;;;;;;2.03;0.80;;;;;;;-145.50;100.00;65435.88;4958268;28;20146;-73
2021/05/24 05:11:37;;;;;;;2.90;1.10;;;;;;;-145.50;100.00;65435.88;4949298;28;20225;-73
2021/05/24 05:14:04;;;;;;;2.25;0.80;;;;;;;-145.50;100.00;65435.88;4970530;28;20050;-73
2021/05/24 05:16:31;;;;;;;3.22;1.10;;;;;;;-145.50;100.00;65435.88;4970746;28;20511;-74
2021/05/24 05:18:57;;;;;;;3.90;1.02;;;;;;;-145.50;100.00;65435.88;4959438;28;20594;-73
2021/05/24 05:21:24;;;;;;;5.50;1.02;;;;;;;-145.50;100.00;65435.88;4966921;28;20721;-73
2021/05/24 05:23:50;;;;;;;2.20;1.10;;;;;;;-145.50;100.00;65435.88;4957710;28;20065;-73
2021/05/24 05:26:17;;;;;;;2.13;0.90;;;;;;;-145.50;100.00;65435.88;4964060;28;20055;-73
2021/05/24 05:28:43;;;;;;;4.43;1.08;;;;;;;-145.50;100.00;65435.88;4953079;28;20426;-73
2021/05/24 05:31:11;;;;;;;4.18;0.93;;;;;;;-145.50;100.00;65435.88;4981555;28;20046;-73
2021/05/24 05:33:37;;;;;;;3.75;1.05;;;;;;;-145.50;100.00;65435.88;4974312;28;21055;-73
2021/05/24 05:36:04;;;;;;;2.92;0.90;;;;;;;-145.50;100.00;65435.88;4961929;28;20917;-73
2021/05/24 05:38:32;;;;;;;5.05;1.00;;;;;;;-145.50;100.00;65435.88;4959176;28;20128;-73
2021/05/24 05:41:05;;;;;;;3.13;1.17;;;;;;;-145.50;100.00;65435.88;4973610;28;20473;-73
2021/05/24 05:43:32;;;;;;;2.63;0.90;;;;;;;-145.50;100.00;65435.88;4961692;28;20086;-73
2021/05/24 05:45:58;;;;;;;7.72;1.17;;;;;;;-145.50;100.00;65435.88;4972763;28;20611;-73
2021/05/24 05:48:25;;;;;;;2.30;0.90;;;;;;;-145.50;100.00;65435.88;4977557;28;20133;-74
2021/05/24 05:50:51;;;;;;;4.65;0.98;;;;;;;-145.50;100.00;65435.88;4955332;28;20073;-74
2021/05/24 05:53:19;;;;;;;2.20;0.70;;;;;;;-145.50;100.00;65435.88;4977747;28;20157;-74
2021/05/24 05:55:46;;;;;;;4.18;0.93;;;;;;;-145.50;100.00;65435.88;4981272;28;20054;-74
2021/05/24 05:58:12;;;;;;;1.45;1.00;;;;;;;-145.50;100.00;65435.88;4970473;28;20074;-74
2021/05/24 06:00:39;;;;;;;2.42;0.90;;;;;;;-145.50;100.00;65435.88;4961351;28;20049;-73
2021/05/24 06:03:05;;;;;;;3.97;1.10;;;;;;;-145.50;100.00;65435.88;4972162;28;20481;-73
2021/05/24 06:05:32;;;;;;;3.38;0.90;;;;;;;-145.50;100.00;65435.88;4976410;28;20513;-73
2021/05/24 06:07:59;;;;;;;4.05;0.98;;;;;;;-145.50;100.00;65435.88;4954243;28;20054;-73
2021/05/24 06:10:25;;;;;;;3.72;1.10;;;;;;;-145.50;100.00;65435.88;4978548;28;20142;-73
2021/05/24 06:12:52;;;;;;;3.58;1.20;;;;;;;-145.50;100.00;65435.88;4961521;28;20085;-74
2021/05/24 06:15:18;;;;;;;3.92;0.82;;;;;;;-145.50;100.00;65435.88;4954546;28;20125;-74
2021/05/24 06:17:45;;;;;;;3.90;0.80;;;;;;;-145.50;100.00;65435.88;4976403;28;20505;-74
2021/05/24 06:20:12;;;;;;;3.88;0.82;;;;;;;-145.50;100.00;65435.88;4947882;28;20074;-74
2021/05/24 06:22:39;;;;;;;5.38;1.15;;;;;;;-145.50;100.00;65435.88;4980038;28;20112;-73
2021/05/24 06:25:08;;;;;;;3.55;0.95;;;;;;;-145.50;100.00;65435.88;4967997;28;20138;-73
2021/05/24 06:27:35;;;;;;;1.73;0.75;;;;;;;-145.50;100.00;65435.88;4981076;28;20060;-73
2021/05/24 06:30:07;;;;;;;2.20;1.20;;;;;;;-145.50;100.00;65435.88;4961412;28;20538;-74
2021/05/24 06:32:34;;;;;;;5.80;1.13;;;;;;;-145.50;100.00;65435.88;4965969;28;20490;-73
2021/05/24 06:35:00;;;;;;;2.00;0.85;;;;;;;-145.50;100.00;65435.88;4974307;28;20050;-73
2021/05/24 06:37:27;;;;;;;6.47;1.10;;;;;;;-145.50;100.00;65435.88;4975808;28;20129;-74
2021/05/24 06:39:54;;;;;;;1.98;0.95;;;;;;;-145.50;100.00;65435.88;4978058;28;20054;-73
2021/05/24 06:42:20;;;;;;;4.43;1.02;;;;;;;-145.50;100.00;65435.88;4954993;28;20372;-74
2021/05/24 06:44:47;;;;;;;6.85;1.00;;;;;;;-145.50;100.00;65435.88;4959301;28;20461;-74
2021/05/24 06:47:13;;;;;;;4.03;1.05;;;;;;;-145.50;100.00;65435.88;4975013;28;20101;-74
2021/05/24 06:49:40;;;;;;;3.42;1.10;;;;;;;-145.50;100.00;65435.88;4969701;28;20109;-74
2021/05/24 06:52:07;;;;;;;4.68;1.00;;;;;;;-145.50;100.00;65435.88;4956556;28;20560;-73
2021/05/24 06:54:35;;;;;;;9.07;0.82;;;;;;;-145.50;100.00;65435.88;4971019;28;20537;-74
2021/05/24 06:57:04;;;;;;;5.50;1.20;;;;;;;-145.50;100.00;65435.88;4974796;28;20065;-74
2021/05/24 06:59:31;;;;;;;4.95;1.10;;;;;;;-145.50;100.00;65435.88;4949112;28;20145;-74
2021/05/24 07:02:01;;;;;;;4.90;1.10;;;;;;;-145.50;100.00;65435.88;4974053;28;20584;-74
2021/05/24 07:04:28;;;;;;;1.55;0.90;;;;;;;-145.50;100.00;65435.88;4960642;28;20585;-74
2021/05/24 07:06:54;;;;;;;2.15;0.90;;;;;;;-145.50;100.00;65435.88;4956652;28;20065;-74
2021/05/24 07:09:21;;;;;;;6.22;1.25;;;;;;;-145.50;100.00;65435.88;4979304;28;20061;-74
2021/05/24 07:11:48;;;;;;;4.13;0.90;;;;;;;-145.50;100.00;65435.88;4974374;28;20069;-74
2021/05/24 07:14:14;;;;;;;2.25;0.85;;;;;;;-145.50;100.00;65435.88;4972694;28;20062;-75
2021/05/24 07:16:41;;;;;;;3.40;1.00;;;;;;;-145.50;100.00;65435.88;4968797;28;20872;-75
2021/05/24 07:19:07;;;;;;;4.25;1.00;;;;;;;-145.50;100.00;65435.88;4975134;28;20161;-75
2021/05/24 07:21:34;;;;;;;1.30;1.00;;;;;;;-145.50;100.00;65435.88;4960008;28;20161;-75
2021/05/24 07:24:00;;;;;;;2.63;0.93;;;;;;;-145.50;100.00;65435.88;4970488;28;20148;-75
2021/05/24 07:26:49;;;;;;;3.47;0.90;;;;;;;-145.50;100.00;65435.88;4975245;28;20058;-74
2021/05/24 07:29:16;;;;;;;;;;;;;;;-145.50;100.00;65435.88;4962721;28;20137;-74
2021/05/24 07:31:43;;;;;;;1.90;0.90;;;;;;;-145.50;100.00;65435.88;4977675;28;19965;-73
2021/05/24 07:34:10;;;;;;;4.00;0.80;;;;;;;-145.50;100.00;65435.88;4974804;28;20093;-73
2021/05/24 07:36:36;;;;;;;4.35;1.00;;;;;;;-145.50;100.00;65435.88;4960263;28;20129;-73
2021/05/24 07:39:04;;;;;;;1.83;1.00;;;;;;;-145.50;100.00;65435.88;4977895;28;20058;-73
2021/05/24 07:41:30;;;;;;;3.17;0.90;;;;;;;-145.50;100.00;65435.88;4964511;28;20174;-73
2021/05/24 07:43:57;;;;;;;2.65;0.98;;;;;;;-145.50;100.00;65435.88;4973120;28;20534;-73
2021/05/24 07:46:23;;;;;;;5.68;1.20;;;;;;;-145.50;100.00;65435.88;4971025;28;20502;-73
2021/05/24 07:48:50;;;;;;;2.92;1.05;;;;;;;-145.50;100.00;65435.88;4963647;28;20432;-73
2021/05/24 07:51:16;;;;;;;4.35;1.20;;;;;;;-145.50;100.00;65435.88;4975546;28;20133;-73
2021/05/24 07:53:43;;;;;;;1.50;0.90;;;;;;;-145.50;100.00;65435.88;4969446;28;20062;-75
2021/05/24 07:56:09;;;;;;;3.20;1.40;;;;;;;-145.50;100.00;65435.88;4972028;28;20046;-73
2021/05/24 07:58:36;;;;;;;5.35;1.20;;;;;;;-145.50;100.00;65435.88;4968030;28;20553;-72
2021/05/24 08:01:02;;;;;;;2.33;0.90;;;;;;;-145.50;100.00;65435.88;4976872;28;20046;-73
2021/05/24 08:03:29;;;;;;;4.63;1.30;;;;;;;-145.50;100.00;65435.88;4974637;28;20505;-73
2021/05/24 08:05:55;;;;;;;2.65;1.20;;;;;;;-145.50;100.00;65435.88;4975780;28;20410;-73
2021/05/24 08:08:24;;;;;;;2.90;1.20;;;;;;;-145.50;100.00;65435.88;4961641;28;20133;-73
2021/05/24 08:10:51;;;;;;;5.55;1.35;;;;;;;-145.50;100.00;65435.88;4967909;28;20050;-73
2021/05/24 08:13:17;;;;;;;4.68;1.38;;;;;;;-145.50;100.00;65435.88;4978218;28;20113;-73
2021/05/24 08:15:44;;;;;;;3.40;1.33;;;;;;;-145.50;100.00;65435.88;4967749;28;20109;-73
2021/05/24 08:18:10;;;;;;;2.40;1.20;;;;;;;-145.50;100.00;65435.88;4975217;28;20142;-73
2021/05/24 08:20:37;;;;;;;3.45;1.40;;;;;;;-145.50;100.00;65435.88;4965960;28;20525;-74
2021/05/24 08:23:05;;;;;;;3.67;1.60;;;;;;;-145.50;100.00;65435.88;4973951;28;20160;-74
2021/05/24 08:25:32;;;;;;;3.33;1.33;;;;;;;-145.50;100.00;65435.88;4970716;28;20152;-74
2021/05/24 08:27:58;;;;;;;4.85;1.48;;;;;;;-145.50;100.00;65435.88;4952649;28;20089;-75
2021/05/24 08:30:28;;;;;;;1.95;1.30;;;;;;;-145.50;100.00;65435.88;4975006;28;20363;-74
2021/05/24 08:32:54;;;;;;;3.20;1.58;;;;;;;-145.50;100.00;65435.88;4969793;28;20454;-73
2021/05/24 08:35:22;;;;;;;2.55;1.35;;;;;;;-145.50;100.00;65435.88;4958580;28;20081;-73
2021/05/24 08:37:48;;;;;;;5.15;1.65;;;;;;;-145.50;100.00;65435.88;4976006;28;20435;-73
2021/05/24 08:40:15;;;;;;;6.00;1.85;;;;;;;-145.50;100.00;65435.88;4971673;28;20120;-73
2021/05/24 08:42:44;;;;;;;2.92;1.30;;;;;;;-145.50;100.00;65435.88;4963644;28;20104;-74
2021/05/24 08:45:11;;;;;;;5.80;1.55;;;;;;;-145.50;100.00;65435.88;4971284;28;20479;-74
2021/05/24 08:47:38;;;;;;;7.55;1.58;;;;;;;-145.50;100.00;65435.88;4975119;28;20098;-74
2021/05/24 08:50:12;;;;;;;6.47;1.75;;;;;;;-145.50;100.00;65435.88;4967047;28;20054;-74
2021/05/24 08:52:39;;;;;;;5.57;1.63;;;;;;;-145.50;100.00;65435.88;4952362;28;20432;-74
2021/05/24 08:55:07;;;;;;;4.32;1.60;;;;;;;-145.50;100.00;65435.88;4952968;28;20140;-74
2021/05/24 08:57:41;;;;;;;4.90;1.77;;;;;;;-145.50;100.00;65435.88;4966644;28;20093;-74
2021/05/24 09:00:11;;;;;;;4.43;1.60;;;;;;;-145.50;100.00;65435.88;4974475;28;20085;-75
2021/05/24 09:02:39;;;;;;;3.08;1.50;;;;;;;-145.50;100.00;65435.88;4965955;28;20504;-74
2021/05/24 09:05:09;;;;;;;3.78;1.83;;;;;;;-145.50;100.00;65435.88;4974785;28;20058;-73
2021/05/24 09:07:51;;;;;;;3.92;1.48;;;;;;;-145.50;100.00;65435.88;4973331;28;20124;-74
2021/05/24 09:10:20;;;;;;;5.68;1.83;;;;;;;-145.50;100.00;65435.88;4978908;28;20349;-73
2021/05/24 09:12:48;;;;;;;4.65;2.10;;;;;;;-145.50;100.00;65435.88;4952343;28;20057;-73
2021/05/24 09:15:16;;;;;;;3.58;1.70;;;;;;;-145.50;100.00;65435.88;4964074;28;20105;-74
2021/05/24 09:18:00;;;;;;;3.30;1.42;;;;;;;-145.50;100.00;65435.88;4982891;28;20077;-73
2021/05/24 09:20:28;;;;;;;3.13;1.30;;;;;;;-145.50;100.00;65435.88;4954009;28;20550;-73
2021/05/24 09:23:08;;;;;;;4.53;1.45;;;;;;;-145.50;100.00;65435.88;4980835;28;20498;-73
2021/05/24 09:25:52;;;;;;;2.67;1.20;;;;;;;-145.50;100.00;65435.88;4976819;28;20101;-73
2021/05/24 09:28:44;;;;;;;4.05;1.33;;;;;;;-145.50;100.00;65435.88;4981059;28;20059;-73
2021/05/24 09:31:11;;;;;;;5.05;1.50;;;;;;;-145.50;100.00;65435.88;4974608;28;20137;-73
2021/05/24 09:33:41;;;;;;;6.13;1.40;;;;;;;-145.50;100.00;65435.88;4968918;28;20054;-73
2021/05/24 09:36:08;;;;;;;6.65;1.38;;;;;;;-145.50;100.00;65435.88;4973092;28;20085;-73
2021/05/24 09:38:38;;;;;;;3.05;1.30;;;;;;;-145.50;100.00;65435.88;4965104;28;20058;-74
2021/05/24 09:41:06;;;;;;;3.50;1.30;;;;;;;-145.50;100.00;65435.88;4977538;28;20086;-74
2021/05/24 09:43:38;;;;;;;4.47;1.40;;;;;;;-145.50;100.00;65435.88;4975477;28;20489;-75
2021/05/24 09:46:14;;;;;;;5.13;1.40;;;;;;;-145.50;100.00;65435.88;4967914;28;20054;-74
2021/05/24 09:48:42;;;;;;;5.20;1.55;;;;;;;-145.50;100.00;65435.88;4967219;28;20474;-74
2021/05/24 09:51:13;;;;;;;3.38;1.30;;;;;;;-145.50;100.00;65435.88;4979631;28;20124;-74
2021/05/24 09:53:41;;;;;;;2.25;1.05;;;;;;;-145.50;100.00;65435.88;4968501;28;20071;-74
2021/05/24 09:56:14;;;;;;;3.13;1.30;;;;;;;-145.50;100.00;65435.88;4964318;28;20082;-74
2021/05/24 09:58:41;;;;;;;3.38;1.42;;;;;;;-145.50;100.00;65435.88;4970700;28;20541;-74
2021/05/24 10:01:18;;;;;;;5.82;1.65;;;;;;;-145.50;100.00;65435.88;4975095;28;20054;-74
2021/05/24 10:03:48;;;;;;;3.92;1.70;;;;;;;-145.50;100.00;65435.88;4973636;28;20169;-74
2021/05/24 10:06:15;;;;;;;3.72;1.52;;;;;;;-145.50;100.00;65435.88;4967613;28;20136;-74
2021/05/24 10:08:42;;;;;;;5.43;1.42;;;;;;;-145.50;100.00;65435.88;4961476;28;20179;-74
2021/05/24 10:11:08;;;;;;;3.20;1.50;;;;;;;-145.50;100.00;65435.88;4967726;28;20046;-74
2021/05/24 10:13:37;;;;;;;4.22;1.30;;;;;;;-145.50;100.00;65435.88;4976995;28;20891;-73
2021/05/24 10:16:05;;;;;;;7.07;1.63;;;;;;;-145.50;100.00;65435.88;4971345;28;20532;-74
2021/05/24 10:18:32;;;;;;;3.80;1.40;;;;;;;-145.50;100.00;65435.88;4978968;28;20046;-75
2021/05/24 10:21:00;;;;;;;5.03;1.75;;;;;;;-145.50;100.00;65435.88;4962793;28;20148;-76
2021/05/24 10:23:28;;;;;;;3.85;1.50;;;;;;;-145.50;100.00;65435.88;4956358;28;20062;-75
2021/05/24 10:25:59;;;;;;;7.88;1.95;;;;;;;-145.50;100.00;65435.88;4964283;28;20161;-75
2021/05/24 10:28:27;;;;;;;6.25;1.70;;;;;;;-145.50;100.00;65435.88;4970924;28;20316;-75
2021/05/24 10:31:08;;;;;;;3.80;1.55;;;;;;;-145.50;100.00;65435.88;4972278;28;20074;-75
2021/05/24 10:33:39;;;;;;;5.25;1.48;;;;;;;-145.50;100.00;65435.88;4955411;28;20082;-74
2021/05/24 10:36:32;;;;;;;3.58;1.75;;;;;;;-145.50;100.00;65435.88;4977573;28;20174;-76
2021/05/24 10:39:15;;;;;;;4.70;1.15;;;;;;;-145.50;100.00;65435.88;4959348;28;20066;-76
2021/05/24 10:41:54;;;;;;;2.97;1.23;;;;;;;-145.50;100.00;65435.88;4959321;28;20121;-75
2021/05/24 10:44:24;;;;;;;;;;;;;;;-145.50;100.00;65435.88;4978860;28;20173;-76
2021/05/24 10:46:52;;;;;;;3.30;1.15;;;;;;;-145.50;100.00;65435.88;4955488;28;19972;-76
2021/05/24 10:49:22;;;;;;;3.10;1.50;;;;;;;-145.50;100.00;65435.88;4982053;28;20054;-76
2021/05/24 10:51:53;;;;;;;5.03;1.63;;;;;;;-145.50;100.00;65435.88;4971910;28;20082;-76
2021/05/24 10:54:25;;;;;;;3.63;1.40;;;;;;;-145.50;100.00;65435.88;4979646;28;20189;-74
2021/05/24 10:56:57;;;;;;;2.45;1.17;;;;;;;-145.50;100.00;65435.88;4967352;28;20081;-78
2021/05/24 10:59:48;;;;;;;4.63;1.70;;;;;;;-145.50;100.00;65435.88;4980336;28;20077;-77
2021/05/24 11:02:26;;;;;;;3.17;1.40;;;;;;;-145.50;100.00;65435.88;4955267;28;20077;-75
2021/05/24 11:04:58;;;;;;;2.80;1.27;;;;;;;-145.50;100.00;65435.88;4973146;28;20176;-75
2021/05/24 11:07:28;;;;;;;2.28;1.33;;;;;;;-145.50;100.00;65435.88;4982527;28;20053;-75
2021/05/24 11:10:19;;;;;;;2.72;1.30;;;;;;;-145.50;100.00;65435.88;4971052;28;20141;-74
2021/05/24 11:12:48;;;;;;;3.55;1.40;;;;;;;-145.50;100.00;65435.88;4980489;28;20089;-75
2021/05/24 11:15:32;;;;;;;3.95;1.42;;;;;;;-145.50;100.00;65435.88;4956080;28;20137;-76